Time;durP1;ratioP1;P1;durP2;ratioP2;P2;SDS_P1;SDS_P2;PMS_P1;PMS_P2;Temp;Humidity;BMP_temperature;BMP_pressure;BME280_temperature;BME280_humidity;BME280_pressure;Samples;Min_cycle;Max_cycle;Signal;HPM_P1;HPM_P2
2024/01/21 00:00:29;;;;;;;;;;;;;;;8.00;44.24;102140.41;4919499;28;103688;-66
2024/01/21 00:02:55;;;;;;;;;;;;;;;7.99;44.51;102142.25;4943478;28;97967;-66
2024/01/21 00:05:21;;;;;;;;;;;;;;;7.97;44.35;102130.88;4924066;28;107453;-66
2024/01/21 00:07:47;;;;;;;;;;;;;;;7.95;44.70;102129.47;4921054;28;130285;-73
2024/01/21 00:10:12;;;;;;;;;;;;;;;7.95;44.50;102134.84;4927561;28;105382;-74
2024/01/21 00:12:38;;;;;;;;;;;;;;;7.94;44.03;102130.47;4925475;28;120726;-73
2024/01/21 00:15:05;;;;;;;;;;;;;;;7.92;44.33;102127.19;4925775;28;99396;-66
2024/01/21 00:17:31;;;;;;;;;;;;;;;7.91;44.56;102121.00;4923394;28;117245;-74
2024/01/21 00:19:57;;;;;;;;;;;;;;;7.90;43.87;102129.25;4933035;28;127568;-73
2024/01/21 00:22:23;;;;;;;;;;;;;;;7.88;44.38;102127.59;4939166;28;122576;-74
2024/01/21 00:24:49;;;;;;;;;;;;;;;7.86;44.53;102124.31;4924539;28;117030;-74
2024/01/21 00:27:15;;;;;;;;;;;;;;;7.85;44.58;102125.34;4940588;28;125777;-74
2024/01/21 00:29:41;;;;;;;;;;;;;;;7.84;44.55;102125.56;4923257;28;102583;-74
2024/01/21 00:32:07;;;;;;;;;;;;;;;7.82;44.39;102115.03;4923627;28;98234;-74
2024/01/21 00:34:33;;;;;;;;;;;;;;;7.81;44.57;102110.69;4925331;28;127658;-66
2024/01/21 00:36:59;;;;;;;;;;;;;;;7.80;44.27;102119.78;4928778;28;122354;-66
2024/01/21 00:39:25;;;;;;;;;;;;;;;7.79;44.40;102123.50;4924572;28;100026;-74
2024/01/21 00:41:51;;;;;;;;;;;;;;;7.76;44.47;102121.22;4931217;28;99203;-66
2024/01/21 00:44:18;;;;;;;;;;;;;;;7.77;44.35;102122.03;4940314;28;128365;-74
2024/01/21 00:46:47;;;;;;;;;;;;;;;7.75;44.60;102122.28;4930040;28;97954;-74
2024/01/21 00:49:13;;;;;;;;;;;;;;;7.74;44.51;102122.47;4929083;28;98392;-67
2024/01/21 00:51:39;;;;;;;;;;;;;;;7.73;44.16;102123.50;4933769;28;99740;-66
2024/01/21 00:54:05;;;;;;;;;;;;;;;7.70;44.55;102105.94;4922109;28;119673;-65
2024/01/21 00:56:31;;;;;;;;;;;;;;;7.69;44.03;102112.34;4921689;28;129630;-74
2024/01/21 00:58:57;;;;;;;;;;;;;;;7.68;44.61;102110.72;4935286;28;128583;-74
2024/01/21 01:01:23;;;;;;;;;;;;;;;7.66;44.21;102115.44;4938727;28;101715;-75
2024/01/21 01:03:49;;;;;;;;;;;;;;;7.66;44.59;102112.75;4943306;28;98793;-66
2024/01/21 01:06:15;;;;;;;;;;;;;;;7.64;44.54;102109.47;4925098;28;116994;-66
2024/01/21 01:08:41;;;;;;;;;;;;;;;7.63;44.55;102108.66;4924447;28;98422;-74
2024/01/21 01:11:07;;;;;;;;;;;;;;;7.62;44.64;102109.69;4938994;28;122918;-66
2024/01/21 01:13:33;;;;;;;;;;;;;;;7.60;44.46;102109.06;4930438;28;99717;-74
2024/01/21 01:16:00;;;;;;;;;;;;;;;7.58;44.52;102108.47;4938759;28;110783;-66
2024/01/21 01:18:26;;;;;;;;;;;;;;;7.58;44.19;102108.47;4940013;28;99096;-65
2024/01/21 01:20:53;;;;;;;;;;;;;;;7.57;44.11;102108.66;4924588;28;98163;-66
2024/01/21 01:23:19;;;;;;;;;;;;;;;7.56;44.50;102115.06;4924824;28;99964;-74
2024/01/21 01:25:45;;;;;;;;;;;;;;;7.53;44.47;102110.91;4925826;28;128343;-74
2024/01/21 01:28:11;;;;;;;;;;;;;;;7.50;44.57;102107.81;4928895;28;97860;-66
2024/01/21 01:30:37;;;;;;;;;;;;;;;7.46;44.39;102109.25;4924061;28;107651;-68
2024/01/21 01:33:03;;;;;;;;;;;;;;;7.42;44.19;102097.28;4926857;28;123405;-66
2024/01/21 01:35:29;;;;;;;;;;;;;;;7.41;44.14;102098.34;4923815;28;116799;-66
2024/01/21 01:37:55;;;;;;;;;;;;;;;7.38;44.06;102099.56;4942404;28;98009;-65
2024/01/21 01:40:21;;;;;;;;;;;;;;;7.35;44.18;102098.13;4924759;28;116534;-74
2024/01/21 01:42:57;;;;;;;;;;;;;;;7.33;44.37;102096.69;4921323;28;99808;-66
2024/01/21 01:45:23;;;;;;;;;;;;;;;7.31;44.26;102096.06;4931461;28;99275;-66
2024/01/21 01:47:49;;;;;;;;;;;;;;;7.27;44.15;102095.66;4922725;28;99859;-74
2024/01/21 01:50:16;;;;;;;;;;;;;;;7.26;44.32;102094.00;4938339;28;97972;-74
2024/01/21 01:52:42;;;;;;;;;;;;;;;7.24;44.53;102089.88;4954407;28;98262;-74
2024/01/21 01:55:08;;;;;;;;;;;;;;;7.23;44.60;102085.53;4926887;28;98191;-74
2024/01/21 01:57:34;;;;;;;;;;;;;;;7.19;44.19;102084.28;4928584;28;99865;-66
2024/01/21 02:00:00;;;;;;;;;;;;;;;7.19;44.12;102078.94;4936997;28;123785;-66
2024/01/21 02:02:26;;;;;;;;;;;;;;;7.16;44.49;102076.69;4923267;28;105966;-66
2024/01/21 02:04:53;;;;;;;;;;;;;;;7.14;44.17;102077.69;4940741;28;107472;-66
2024/01/21 02:07:18;;;;;;;;;;;;;;;7.13;44.13;102080.59;4922972;28;98493;-74
2024/01/21 02:09:44;;;;;;;;;;;;;;;7.11;44.10;102074.59;4923446;28;99234;-65
2024/01/21 02:12:17;;;;;;;;;;;;;;;7.10;44.34;102072.94;4939392;28;127130;-66
2024/01/21 02:14:43;;;;;;;;;;;;;;;7.08;44.35;102066.97;4938688;28;98471;-66
2024/01/21 02:17:09;;;;;;;;;;;;;;;7.06;44.03;102069.84;4921998;28;105576;-74
2024/01/21 02:19:35;;;;;;;;;;;;;;;7.06;44.39;102064.47;4919941;28;121886;-74
2024/01/21 02:22:01;;;;;;;;;;;;;;;7.05;44.33;102075.41;4937478;28;98402;-74
2024/01/21 02:24:31;;;;;;;;;;;;;;;7.03;44.49;102074.78;4938116;28;99605;-66
2024/01/21 02:26:57;;;;;;;;;;;;;;;7.02;44.33;102089.22;4923285;28;98912;-74
2024/01/21 02:29:23;;;;;;;;;;;;;;;7.01;44.41;102092.94;4922634;28;98706;-74
2024/01/21 02:31:52;;;;;;;;;;;;;;;7.00;44.04;102081.41;4923376;28;98141;-66
2024/01/21 02:34:19;;;;;;;;;;;;;;;6.99;44.19;102078.91;4939014;28;98046;-74
2024/01/21 02:36:45;;;;;;;;;;;;;;;6.98;43.98;102079.94;4935991;28;98996;-66
2024/01/21 02:39:12;;;;;;;;;;;;;;;6.95;44.15;102070.44;4924322;28;98419;-66
2024/01/21 02:41:38;;;;;;;;;;;;;;;6.95;44.20;102069.63;4921810;28;98137;-66
2024/01/21 02:44:04;;;;;;;;;;;;;;;6.93;44.09;102063.66;4921948;28;108142;-66
2024/01/21 02:46:30;;;;;;;;;;;;;;;6.92;44.29;102059.31;4940049;28;98044;-74
2024/01/21 02:48:56;;;;;;;;;;;;;;;6.91;44.44;102061.16;4924824;28;99604;-66
2024/01/21 02:51:22;;;;;;;;;;;;;;;6.90;43.97;102059.53;4956398;28;105584;-74
2024/01/21 02:53:48;;;;;;;;;;;;;;;6.88;44.12;102053.56;4923616;28;98069;-66
2024/01/21 02:56:24;;;;;;;;;;;;;;;6.86;44.19;102051.06;4950847;28;99709;-66
2024/01/21 02:58:50;;;;;;;;;;;;;;;6.85;43.92;102051.28;4927714;28;98363;-66
2024/01/21 03:01:17;;;;;;;;;;;;;;;6.84;44.31;102049.63;4920655;28;98298;-66
2024/01/21 03:03:43;;;;;;;;;;;;;;;6.83;44.29;102046.09;4924220;28;98392;-74
2024/01/21 03:06:09;;;;;;;;;;;;;;;6.83;44.02;102042.59;4920090;28;109498;-74
2024/01/21 03:08:35;;;;;;;;;;;;;;;6.82;44.23;102033.72;4924733;28;98178;-73
2024/01/21 03:11:01;;;;;;;;;;;;;;;6.81;44.09;102036.63;4936845;28;117655;-66
2024/01/21 03:13:27;;;;;;;;;;;;;;;6.82;43.97;102035.59;4922845;28;100466;-74
2024/01/21 03:15:53;;;;;;;;;;;;;;;6.81;44.01;102024.03;4924519;28;98952;-66
2024/01/21 03:18:19;;;;;;;;;;;;;;;6.81;43.81;102031.25;4932685;28;110990;-66
2024/01/21 03:20:46;;;;;;;;;;;;;;;6.82;44.45;102027.53;4938583;28;98483;-65
2024/01/21 03:23:12;;;;;;;;;;;;;;;6.82;43.73;102022.19;4952883;28;100489;-74
2024/01/21 03:25:38;;;;;;;;;;;;;;;6.82;44.26;102011.47;4925351;28;99665;-66
2024/01/21 03:28:04;;;;;;;;;;;;;;;6.81;44.06;102021.38;4922870;28;110605;-74
2024/01/21 03:30:30;;;;;;;;;;;;;;;6.82;43.86;102023.00;4932552;28;100243;-66
2024/01/21 03:32:56;;;;;;;;;;;;;;;6.82;44.11;102028.38;4919125;28;98310;-74
2024/01/21 03:35:22;;;;;;;;;;;;;;;6.82;43.67;102028.38;4917664;28;128443;-66
2024/01/21 03:37:49;;;;;;;;;;;;;;;6.82;44.07;102023.00;4925568;28;105554;-74
2024/01/21 03:40:16;;;;;;;;;;;;;;;6.82;43.98;102016.81;4925032;28;98156;-66
2024/01/21 03:42:45;;;;;;;;;;;;;;;6.86;44.14;102010.03;4934897;28;98551;-74
2024/01/21 03:45:11;;;;;;;;;;;;;;;6.92;44.17;102016.41;4924382;28;98563;-66
2024/01/21 03:47:37;;;;;;;;;;;;;;;6.97;43.94;102006.72;4941140;28;98303;-74
2024/01/21 03:50:03;;;;;;;;;;;;;;;7.02;43.96;102011.47;4925717;28;98112;-74
2024/01/21 03:52:29;;;;;;;;;;;;;;;7.05;44.38;102016.44;4928572;28;98279;-75
2024/01/21 03:54:55;;;;;;;;;;;;;;;7.08;44.29;102007.97;4937512;28;125849;-66
2024/01/21 03:57:21;;;;;;;;;;;;;;;7.10;44.37;102003.22;4927956;28;98230;-66
2024/01/21 03:59:47;;;;;;;;;;;;;;;7.11;43.87;101999.50;4936653;28;105624;-65
2024/01/21 04:02:13;;;;;;;;;;;;;;;7.11;44.34;102005.72;4941438;28;127635;-74
2024/01/21 04:04:39;;;;;;;;;;;;;;;7.13;44.22;102008.16;4922931;28;98287;-74
2024/01/21 04:07:05;;;;;;;;;;;;;;;7.13;44.18;101997.44;4939462;28;99528;-66
2024/01/21 04:09:31;;;;;;;;;;;;;;;7.12;44.26;101996.63;4940037;28;108180;-74
2024/01/21 04:11:57;;;;;;;;;;;;;;;7.12;44.23;101985.91;4930804;28;99608;-66
2024/01/21 04:14:23;;;;;;;;;;;;;;;7.11;44.42;101992.31;4925529;28;98134;-74
2024/01/21 04:16:50;;;;;;;;;;;;;;;7.11;44.10;101986.09;4942055;28;98215;-74
2024/01/21 04:19:19;;;;;;;;;;;;;;;7.10;44.37;101990.63;4937624;28;97969;-66
2024/01/21 04:21:45;;;;;;;;;;;;;;;7.10;44.11;101979.91;4941422;28;98083;-66
2024/01/21 04:24:11;;;;;;;;;;;;;;;7.10;44.05;101981.75;4927699;28;98490;-66
2024/01/21 04:26:37;;;;;;;;;;;;;;;7.10;43.91;101981.75;4925410;28;108990;-65
2024/01/21 04:29:03;;;;;;;;;;;;;;;7.08;44.12;101990.03;4942218;28;98364;-74
2024/01/21 04:31:29;;;;;;;;;;;;;;;7.08;44.04;101984.66;4941714;28;100787;-66
2024/01/21 04:33:55;;;;;;;;;;;;;;;7.07;44.02;101991.06;4915248;27;127699;-74
2024/01/21 04:36:24;;;;;;;;;;;;;;;7.07;44.06;101985.72;4939894;28;100127;-74
2024/01/21 04:38:50;;;;;;;;;;;;;;;7.05;44.01;101984.25;4925369;28;98559;-66
2024/01/21 04:41:16;;;;;;;;;;;;;;;7.04;43.85;101982.59;4923444;28;100111;-74
2024/01/21 04:43:44;;;;;;;;;;;;;;;7.05;44.06;101986.94;4945631;28;126574;-66
2024/01/21 04:46:10;;;;;;;;;;;;;;;7.03;43.92;101992.47;4937064;28;98205;-66
2024/01/21 04:48:36;;;;;;;;;;;;;;;7.03;44.16;101992.47;4938371;28;98760;-65
2024/01/21 04:51:02;;;;;;;;;;;;;;;7.01;44.22;101988.38;4920733;28;105780;-66
2024/01/21 04:53:28;;;;;;;;;;;;;;;7.01;44.10;101999.94;4920597;28;111239;-66
2024/01/21 04:55:54;;;;;;;;;;;;;;;7.00;44.08;101997.47;4921284;28;98372;-74
2024/01/21 04:58:20;;;;;;;;;;;;;;;6.99;43.94;102001.97;4923479;28;98266;-66
2024/01/21 05:00:46;;;;;;;;;;;;;;;6.99;44.09;101993.09;4925375;28;98126;-74
2024/01/21 05:03:12;;;;;;;;;;;;;;;6.97;43.94;101993.31;4935889;28;98131;-74
2024/01/21 05:05:38;;;;;;;;;;;;;;;6.95;44.08;101992.69;4917597;28;110774;-74
2024/01/21 05:08:04;;;;;;;;;;;;;;;6.95;44.10;101998.06;4930655;28;121690;-75
2024/01/21 05:10:30;;;;;;;;;;;;;;;6.94;43.98;101995.59;4936370;28;98117;-74
2024/01/21 05:12:56;;;;;;;;;;;;;;;6.92;44.09;101994.97;4944825;28;99497;-66
2024/01/21 05:15:22;;;;;;;;;;;;;;;6.89;43.94;101989.00;4935247;28;122283;-66
2024/01/21 05:17:48;;;;;;;;;;;;;;;6.91;44.16;101986.09;4940127;28;118071;-74
2024/01/21 05:20:14;;;;;;;;;;;;;;;6.88;44.08;101978.50;4922468;28;99508;-66
2024/01/21 05:22:40;;;;;;;;;;;;;;;6.86;44.04;101978.69;4922576;28;98143;-65
2024/01/21 05:25:06;;;;;;;;;;;;;;;6.85;43.81;101973.53;4920847;28;124866;-66
2024/01/21 05:27:33;;;;;;;;;;;;;;;6.84;43.90;101977.25;4942633;28;98149;-74
2024/01/21 05:29:58;;;;;;;;;;;;;;;6.82;43.91;101976.63;4944857;28;97979;-74
2024/01/21 05:32:24;;;;;;;;;;;;;;;6.80;43.89;101976.84;4923674;28;127745;-65
2024/01/21 05:34:50;;;;;;;;;;;;;;;6.78;43.90;101968.16;4926381;28;120052;-74
2024/01/21 05:37:17;;;;;;;;;;;;;;;6.78;44.04;101970.03;4930486;28;98386;-74
2024/01/21 05:39:43;;;;;;;;;;;;;;;6.76;43.69;101972.06;4923082;28;98953;-66
2024/01/21 05:42:09;;;;;;;;;;;;;;;6.74;44.06;101964.25;4937613;28;98028;-66
2024/01/21 05:44:35;;;;;;;;;;;;;;;6.73;44.16;101964.47;4922929;28;110879;-65
2024/01/21 05:47:01;;;;;;;;;;;;;;;6.72;44.16;101973.50;4941650;28;99156;-74
2024/01/21 05:49:27;;;;;;;;;;;;;;;6.70;44.08;101964.88;4955221;28;99692;-74
2024/01/21 05:51:53;;;;;;;;;;;;;;;6.68;44.08;101967.75;4926364;28;98029;-66
2024/01/21 05:54:19;;;;;;;;;;;;;;;6.68;44.00;101970.44;4936991;28;98858;-65
2024/01/21 05:56:45;;;;;;;;;;;;;;;6.66;44.04;101964.44;4926033;28;99525;-73
2024/01/21 05:59:13;;;;;;;;;;;;;;;6.64;43.87;101967.34;4923889;28;99514;-65
2024/01/21 06:01:39;;;;;;;;;;;;;;;6.63;43.95;101970.22;4938102;28;98273;-74
2024/01/21 06:04:05;;;;;;;;;;;;;;;6.62;43.96;101966.69;4943889;28;98499;-73
2024/01/21 06:06:31;;;;;;;;;;;;;;;6.61;44.15;101959.72;4927688;28;100287;-73
2024/01/21 06:08:57;;;;;;;;;;;;;;;6.61;43.87;101969.59;4929505;28;98841;-73
2024/01/21 06:11:24;;;;;;;;;;;;;;;6.60;43.96;101971.47;4945045;28;98121;-66
2024/01/21 06:13:50;;;;;;;;;;;;;;;6.59;44.01;101966.28;4922622;28;98109;-73
2024/01/21 06:16:16;;;;;;;;;;;;;;;6.58;44.07;101970.81;4921270;28;130935;-66
2024/01/21 06:18:43;;;;;;;;;;;;;;;6.57;44.28;101968.38;4926180;28;98245;-65
2024/01/21 06:21:09;;;;;;;;;;;;;;;6.56;43.95;101966.69;4921275;28;98133;-73
2024/01/21 06:23:35;;;;;;;;;;;;;;;6.56;43.94;101954.16;4939221;28;98038;-65
2024/01/21 06:26:02;;;;;;;;;;;;;;;6.55;43.69;101954.31;4920084;28;98324;-73
2024/01/21 06:28:28;;;;;;;;;;;;;;;6.54;44.03;101947.31;4944187;28;98234;-65
2024/01/21 06:30:54;;;;;;;;;;;;;;;6.53;43.76;101943.00;4924750;28;99178;-73
2024/01/21 06:33:20;;;;;;;;;;;;;;;6.51;43.96;101937.84;4924481;28;100322;-74
2024/01/21 06:35:46;;;;;;;;;;;;;;;6.51;43.70;101937.84;4927555;28;126479;-73
2024/01/21 06:38:12;;;;;;;;;;;;;;;6.50;43.74;101940.72;4930363;28;101626;-66
2024/01/21 06:40:38;;;;;;;;;;;;;;;6.50;43.92;101932.69;4929806;28;100985;-66
2024/01/21 06:43:04;;;;;;;;;;;;;;;6.49;44.06;101934.56;4933634;28;107571;-66
2024/01/21 06:45:30;;;;;;;;;;;;;;;6.49;43.92;101937.22;4918884;28;100602;-66
2024/01/21 06:47:56;;;;;;;;;;;;;;;6.50;43.81;101932.69;4939445;28;99933;-74
2024/01/21 06:50:22;;;;;;;;;;;;;;;6.49;43.95;101936.41;4923133;28;97975;-73
2024/01/21 06:52:49;;;;;;;;;;;;;;;6.50;43.65;101936.19;4936565;28;98339;-66
2024/01/21 06:55:15;;;;;;;;;;;;;;;6.50;43.81;101930.00;4920140;28;98331;-73
2024/01/21 06:57:41;;;;;;;;;;;;;;;6.50;43.84;101932.69;4932816;28;104805;-66
2024/01/21 07:00:07;;;;;;;;;;;;;;;6.51;43.79;101943.19;4940518;28;99039;-66
2024/01/21 07:02:33;;;;;;;;;;;;;;;6.52;43.90;101934.13;4936337;28;98185;-73
2024/01/21 07:04:59;;;;;;;;;;;;;;;6.54;43.93;101931.25;4937307;28;127292;-73
2024/01/21 07:07:26;;;;;;;;;;;;;;;6.56;43.78;101929.19;4920965;28;98360;-73
2024/01/21 07:09:52;;;;;;;;;;;;;;;6.57;43.90;101923.63;4935149;28;98460;-66
2024/01/21 07:12:18;;;;;;;;;;;;;;;6.60;44.05;101925.06;4920154;28;106129;-74
2024/01/21 07:14:44;;;;;;;;;;;;;;;6.62;43.71;101918.47;4936560;28;98411;-66
2024/01/21 07:17:10;;;;;;;;;;;;;;;6.65;43.85;101919.94;4933361;28;101160;-66
2024/01/21 07:19:36;;;;;;;;;;;;;;;6.69;43.69;101918.47;4953684;28;99827;-66
2024/01/21 07:22:02;;;;;;;;;;;;;;;6.72;43.48;101918.06;4927396;28;121352;-73
2024/01/21 07:24:28;;;;;;;;;;;;;;;6.78;43.61;101930.63;4933938;28;98346;-73
2024/01/21 07:26:54;;;;;;;;;;;;;;;6.84;43.88;101932.50;4952242;28;99712;-66
2024/01/21 07:29:20;;;;;;;;;;;;;;;6.90;43.47;101922.78;4921759;28;128281;-66
2024/01/21 07:31:47;;;;;;;;;;;;;;;6.98;43.53;101925.25;4923487;28;98787;-66
2024/01/21 07:34:13;;;;;;;;;;;;;;;7.07;43.17;101924.03;4936451;28;98424;-73
2024/01/21 07:36:39;;;;;;;;;;;;;;;7.18;43.47;101924.41;4920941;28;98104;-66
2024/01/21 07:39:06;;;;;;;;;;;;;;;7.30;43.65;101928.09;4924864;28;98242;-73
2024/01/21 07:41:32;;;;;;;;;;;;;;;7.43;43.67;101917.34;4925365;28;98237;-73
2024/01/21 07:43:59;;;;;;;;;;;;;;;7.57;43.50;101910.06;4921571;28;98166;-73
2024/01/21 07:46:25;;;;;;;;;;;;;;;7.70;43.44;101911.84;4923011;28;98058;-73
2024/01/21 07:48:51;;;;;;;;;;;;;;;7.81;43.04;101916.56;4932631;28;98064;-66
2024/01/21 07:51:18;;;;;;;;;;;;;;;8.01;43.12;101917.28;4921752;28;98373;-66
2024/01/21 07:53:44;;;;;;;;;;;;;;;8.16;43.33;101910.78;4930667;28;98572;-73
2024/01/21 07:56:10;;;;;;;;;;;;;;;8.23;43.22;101909.72;4933880;28;98759;-73
2024/01/21 07:58:36;;;;;;;;;;;;;;;8.32;42.95;101908.41;4940367;28;99232;-74
2024/01/21 08:01:05;;;;;;;;;;;;;;;8.47;43.37;101901.94;4923190;28;103497;-73
2024/01/21 08:03:32;;;;;;;;;;;;;;;8.58;43.04;101903.91;4925611;28;98143;-74
2024/01/21 08:05:58;;;;;;;;;;;;;;;8.72;43.26;101901.94;4939963;28;98465;-73
2024/01/21 08:08:24;;;;;;;;;;;;;;;8.89;43.56;101900.34;4920975;28;119087;-73
2024/01/21 08:10:50;;;;;;;;;;;;;;;9.46;42.81;101892.06;4923679;28;101536;-66
2024/01/21 08:13:16;;;;;;;;;;;;;;;10.06;41.75;101882.16;4938787;28;100008;-66
2024/01/21 08:15:42;;;;;;;;;;;;;;;10.01;42.02;101882.00;4933259;28;99578;-73
2024/01/21 08:18:07;;;;;;;;;;;;;;;9.91;42.83;101887.16;4934741;28;126334;-66
2024/01/21 08:20:33;;;;;;;;;;;;;;;9.95;42.83;101882.94;4952088;28;108992;-73
2024/01/21 08:23:01;;;;;;;;;;;;;;;10.55;42.52;101877.50;4934810;28;98128;-66
2024/01/21 08:25:28;;;;;;;;;;;;;;;11.43;41.64;101859.44;4939508;28;98472;-73
2024/01/21 08:27:54;;;;;;;;;;;;;;;11.73;41.69;101867.34;4938498;28;98308;-74
2024/01/21 08:30:20;;;;;;;;;;;;;;;11.65;42.13;101869.59;4920176;28;100846;-74
2024/01/21 08:32:46;;;;;;;;;;;;;;;11.84;42.19;101867.56;4924958;28;98047;-74
2024/01/21 08:35:12;;;;;;;;;;;;;;;11.77;42.49;101863.09;4919329;28;98152;-66
2024/01/21 08:37:38;;;;;;;;;;;;;;;11.78;42.41;101872.00;4918453;28;98680;-73
2024/01/21 08:40:05;;;;;;;;;;;;;;;11.88;42.47;101876.84;4922617;28;98192;-73
2024/01/21 08:42:31;;;;;;;;;;;;;;;11.86;42.67;101870.84;4925261;28;103621;-67
2024/01/21 08:44:57;;;;;;;;;;;;;;;11.99;42.44;101862.44;4922550;28;104348;-73
2024/01/21 08:47:23;;;;;;;;;;;;;;;12.66;41.93;101842.72;4932244;28;98377;-74
2024/01/21 08:49:49;;;;;;;;;;;;;;;13.26;41.85;101833.81;4921278;28;101932;-74
2024/01/21 08:52:15;;;;;;;;;;;;;;;13.69;41.99;101835.66;4921491;28;126740;-74
2024/01/21 08:54:41;;;;;;;;;;;;;;;13.54;42.08;101838.22;4920292;28;98925;-66
2024/01/21 08:57:07;;;;;;;;;;;;;;;13.64;41.96;101832.91;4937344;28;127653;-73
2024/01/21 08:59:33;;;;;;;;;;;;;;;13.72;42.41;101827.03;4926375;28;103910;-74
2024/01/21 09:01:59;;;;;;;;;;;;;;;14.03;42.28;101816.50;4942647;28;98208;-66
2024/01/21 09:04:25;;;;;;;;;;;;;;;14.59;41.45;101816.94;4938605;28;128362;-74
2024/01/21 09:06:51;;;;;;;;;;;;;;;14.97;41.72;101815.81;4924406;28;106721;-66
2024/01/21 09:09:20;;;;;;;;;;;;;;;15.08;41.72;101830.22;4943565;28;104065;-66
2024/01/21 09:11:47;;;;;;;;;;;;;;;15.18;41.92;101830.28;4935969;28;100127;-66
2024/01/21 09:14:13;;;;;;;;;;;;;;;15.15;41.90;101828.09;4922372;28;98662;-66
2024/01/21 09:16:39;;;;;;;;;;;;;;;14.90;42.43;101828.00;4938969;28;98376;-66
2024/01/21 09:19:05;;;;;;;;;;;;;;;14.69;42.58;101832.47;4919707;28;99291;-66
2024/01/21 09:21:33;;;;;;;;;;;;;;;14.52;42.45;101831.81;4924146;28;100247;-74
2024/01/21 09:24:03;;;;;;;;;;;;;;;14.39;42.46;101823.00;4936717;28;98125;-67
2024/01/21 09:26:32;;;;;;;;;;;;;;;14.27;42.82;101824.28;4921633;28;99396;-66
2024/01/21 09:28:58;;;;;;;;;;;;;;;14.13;42.75;101827.41;4922289;28;98949;-74
2024/01/21 09:31:24;;;;;;;;;;;;;;;14.01;42.88;101818.63;4936941;28;128115;-74
2024/01/21 09:33:50;;;;;;;;;;;;;;;13.90;42.72;101833.97;4934211;28;99751;-74
2024/01/21 09:36:16;;;;;;;;;;;;;;;13.83;43.09;101829.84;4920605;28;99767;-66
2024/01/21 09:38:42;;;;;;;;;;;;;;;13.82;42.72;101831.72;4938154;28;98116;-66
2024/01/21 09:41:27;;;;;;;;;;;;;;;13.87;42.94;101839.09;4922244;28;105010;-66
2024/01/21 09:43:53;;;;;;;;;;;;;;;14.05;42.59;101832.50;4948479;28;98167;-66
2024/01/21 09:46:20;;;;;;;;;;;;;;;14.14;42.57;101826.31;4926799;28;98505;-74
2024/01/21 09:48:46;;;;;;;;;;;;;;;14.24;42.71;101833.75;4932237;28;122312;-75
2024/01/21 09:51:12;;;;;;;;;;;;;;;14.12;42.95;101833.09;4933761;28;98074;-66
2024/01/21 09:53:38;;;;;;;;;;;;;;;14.04;42.67;101822.72;4937731;28;98231;-74
2024/01/21 09:56:07;;;;;;;;;;;;;;;13.98;42.77;101825.38;4922164;28;99118;-74
2024/01/21 09:58:52;;;;;;;;;;;;;;;13.90;42.71;101819.59;4949900;28;98237;-66
2024/01/21 10:01:18;;;;;;;;;;;;;;;13.81;42.67;101818.44;4934247;28;98358;-66
2024/01/21 10:03:45;;;;;;;;;;;;;;;13.69;43.09;101810.47;4933957;28;110082;-74
2024/01/21 10:06:11;;;;;;;;;;;;;;;13.57;43.11;101805.19;4954367;28;98062;-66
2024/01/21 10:08:42;;;;;;;;;;;;;;;13.47;43.46;101813.22;4940512;28;98163;-66
2024/01/21 10:11:08;;;;;;;;;;;;;;;13.36;43.22;101800.63;4940616;28;98417;-66
2024/01/21 10:13:38;;;;;;;;;;;;;;;13.30;43.15;101798.94;4935017;28;98137;-74
2024/01/21 10:16:04;;;;;;;;;;;;;;;13.23;43.35;101789.09;4920859;28;99469;-66
2024/01/21 10:18:30;;;;;;;;;;;;;;;13.19;43.22;101782.53;4918882;28;98795;-74
2024/01/21 10:20:57;;;;;;;;;;;;;;;13.17;43.57;101781.97;4936666;28;101327;-74
2024/01/21 10:23:23;;;;;;;;;;;;;;;13.16;43.20;101779.50;4932990;28;98125;-74
2024/01/21 10:25:49;;;;;;;;;;;;;;;13.16;43.15;101782.22;4918579;28;103654;-74
2024/01/21 10:28:15;;;;;;;;;;;;;;;13.17;43.45;101779.28;4921218;28;107105;-74
2024/01/21 10:30:42;;;;;;;;;;;;;;;13.21;42.96;101772.28;4932948;28;98338;-75
2024/01/21 10:33:08;;;;;;;;;;;;;;;13.25;43.30;101778.03;4932854;28;98179;-74
2024/01/21 10:35:35;;;;;;;;;;;;;;;13.31;43.03;101768.06;4921569;28;99582;-74
2024/01/21 10:38:02;;;;;;;;;;;;;;;13.37;43.31;101765.19;4921224;28;99019;-74
2024/01/21 10:40:28;;;;;;;;;;;;;;;13.47;43.01;101756.31;4955178;28;98199;-66
2024/01/21 10:42:58;;;;;;;;;;;;;;;13.56;43.01;101752.09;4917357;28;127548;-74
2024/01/21 10:45:25;;;;;;;;;;;;;;;13.68;42.86;101741.91;4950683;28;98282;-75
2024/01/21 10:47:51;;;;;;;;;;;;;;;13.77;43.01;101744.16;4921359;28;117321;-74
2024/01/21 10:50:19;;;;;;;;;;;;;;;13.80;42.69;101740.94;4921853;28;98246;-75
2024/01/21 10:52:45;;;;;;;;;;;;;;;13.84;43.09;101734.75;4919265;28;98224;-75
2024/01/21 10:55:11;;;;;;;;;;;;;;;13.88;42.79;101726.91;4930634;28;99195;-66
2024/01/21 10:57:37;;;;;;;;;;;;;;;13.92;43.04;101723.41;4917810;28;101053;-74
2024/01/21 11:00:03;;;;;;;;;;;;;;;13.97;43.11;101715.31;4931561;28;99981;-74
2024/01/21 11:02:31;;;;;;;;;;;;;;;14.01;42.92;101721.03;4934242;28;99127;-74
2024/01/21 11:04:57;;;;;;;;;;;;;;;14.05;42.68;101707.78;4934458;28;98643;-74
2024/01/21 11:07:24;;;;;;;;;;;;;;;14.05;42.70;101708.59;4921975;28;98134;-74
2024/01/21 11:09:53;;;;;;;;;;;;;;;14.08;43.05;101709.97;4933516;28;99609;-66
2024/01/21 11:12:19;;;;;;;;;;;;;;;14.14;42.94;101714.34;4932814;28;98056;-66
2024/01/21 11:14:46;;;;;;;;;;;;;;;14.18;42.89;101712.75;4931597;28;98223;-66
2024/01/21 11:17:18;;;;;;;;;;;;;;;14.21;42.72;101702.19;4919840;28;98169;-66
2024/01/21 11:19:47;;;;;;;;;;;;;;;14.22;43.07;101697.56;4934996;28;98231;-66
2024/01/21 11:22:14;;;;;;;;;;;;;;;14.19;43.20;101696.22;4938094;28;98434;-73
2024/01/21 11:24:43;;;;;;;;;;;;;;;14.13;42.62;101686.41;4921074;28;99485;-66
2024/01/21 11:27:29;;;;;;;;;;;;;;;14.10;43.09;101680.69;4933246;28;98885;-66
2024/01/21 11:29:56;;;;;;;;;;;;;;;14.07;42.88;101682.06;4938497;28;99009;-74
2024/01/21 11:32:25;;;;;;;;;;;;;;;14.04;43.17;101673.63;4917172;28;98308;-74
2024/01/21 11:34:52;;;;;;;;;;;;;;;14.04;43.23;101681.75;4916535;28;98366;-67
2024/01/21 11:37:18;;;;;;;;;;;;;;;14.03;43.25;101682.81;4937094;28;98177;-66
2024/01/21 11:39:44;;;;;;;;;;;;;;;13.99;43.07;101671.69;4915919;28;98336;-66
2024/01/21 11:42:10;;;;;;;;;;;;;;;13.93;43.29;101673.53;4916264;28;98016;-67
2024/01/21 11:44:37;;;;;;;;;;;;;;;13.89;43.43;101682.47;4937552;28;98381;-67
2024/01/21 11:47:04;;;;;;;;;;;;;;;13.84;43.07;101674.31;4915634;28;98356;-67
2024/01/21 11:49:31;;;;;;;;;;;;;;;13.79;43.48;101669.63;4922072;28;98208;-67
2024/01/21 11:52:00;;;;;;;;;;;;;;;13.73;43.19;101679.63;4919807;28;98471;-67
2024/01/21 11:54:28;;;;;;;;;;;;;;;13.67;43.42;101671.72;4934923;28;98534;-67
2024/01/21 11:56:54;;;;;;;;;;;;;;;13.62;43.21;101672.50;4920653;28;98130;-67
2024/01/21 11:59:20;;;;;;;;;;;;;;;13.58;43.44;101667.84;4938427;28;98894;-76
2024/01/21 12:01:47;;;;;;;;;;;;;;;13.56;43.46;101659.16;4935859;28;99767;-67
2024/01/21 12:04:13;;;;;;;;;;;;;;;13.56;43.14;101664.56;4916572;28;100022;-67
2024/01/21 12:06:46;;;;;;;;;;;;;;;13.56;43.57;101662.72;4923908;28;98101;-75
2024/01/21 12:09:13;;;;;;;;;;;;;;;13.56;43.11;101665.41;4924310;28;99938;-74
2024/01/21 12:11:39;;;;;;;;;;;;;;;13.58;43.26;101648.88;4934006;28;98536;-75
2024/01/21 12:14:14;;;;;;;;;;;;;;;13.58;43.16;101624.50;4934300;28;119845;-75
2024/01/21 12:16:40;;;;;;;;;;;;;;;13.57;43.45;101626.41;4922717;28;98603;-67
2024/01/21 12:19:07;;;;;;;;;;;;;;;13.58;43.38;101632.63;4925154;28;98794;-66
2024/01/21 12:21:33;;;;;;;;;;;;;;;13.60;43.48;101639.44;4940129;28;98577;-74
2024/01/21 12:24:02;;;;;;;;;;;;;;;13.62;43.28;101645.41;4919134;28;99113;-66
2024/01/21 12:26:28;;;;;;;;;;;;;;;13.68;43.24;101644.38;4925901;28;98319;-67
2024/01/21 12:28:55;;;;;;;;;;;;;;;13.71;43.38;101626.75;4918809;28;98741;-75
2024/01/21 12:31:31;;;;;;;;;;;;;;;13.73;43.01;101622.72;4950666;28;98348;-67
2024/01/21 12:34:01;;;;;;;;;;;;;;;13.73;43.35;101620.03;4936128;28;98598;-75
2024/01/21 12:36:30;;;;;;;;;;;;;;;13.75;43.34;101617.03;4923145;28;98830;-74